Time;durP1;ratioP1;P1;durP2;ratioP2;P2;SDS_P1;SDS_P2;PMS_P1;PMS_P2;Temp;Humidity;BMP_temperature;BMP_pressure;BME280_temperature;BME280_humidity;BME280_pressure;Samples;Min_cycle;Max_cycle;Signal;HPM_P1;HPM_P2
2023/10/31 00:02:11;;;;;;;;;;;;;;;9.82;100.00;98838.59;4973027;28;19921;-83
2023/10/31 00:04:38;;;;;;;;;;;;;;;9.86;100.00;98833.34;4990625;28;19922;-84
2023/10/31 00:07:06;;;;;;;;;;;;;;;9.85;100.00;98832.53;4965129;28;19922;-82
2023/10/31 00:09:34;;;;;;;;;;;;;;;9.85;100.00;98824.38;4983925;28;19921;-84
2023/10/31 00:12:09;;;;;;;;;;;;;;;9.87;100.00;98826.75;4997347;28;20293;-85
2023/10/31 00:14:42;;;;;;;;;;;;;;;9.86;100.00;98817.03;4994868;28;19928;-85
2023/10/31 00:17:11;;;;;;;;;;;;;;;9.86;100.00;98808.88;4989260;28;20012;-83
2023/10/31 00:19:44;;;;;;;;;;;;;;;9.85;100.00;98813.50;4988610;28;19925;-83
2023/10/31 00:22:17;;;;;;;;;;;;;;;9.86;100.00;98809.69;4994751;28;19929;-82
2023/10/31 00:24:45;;;;;;;;;;;;;;;9.85;100.00;98810.00;4986614;28;19921;-83
2023/10/31 00:27:19;;;;;;;;;;;;;;;9.84;100.00;98801.03;4994579;28;19926;-83
2023/10/31 00:29:52;;;;;;;;;;;;;;;9.83;100.00;98802.16;4994467;28;19926;-83
2023/10/31 00:32:20;;;;;;;;;;;;;;;9.81;100.00;98798.97;4978441;28;19922;-82
2023/10/31 00:34:53;;;;;;;;;;;;;;;9.80;100.00;98793.84;4994429;28;19926;-83
2023/10/31 00:37:26;;;;;;;;;;;;;;;9.79;100.00;98795.78;4982711;28;19922;-82
2023/10/31 00:39:54;;;;;;;;;;;;;;;9.80;100.00;98789.22;4994043;28;19952;-83
2023/10/31 00:42:28;;;;;;;;;;;;;;;9.77;100.00;98784.44;4994820;28;19928;-84
2023/10/31 00:45:01;;;;;;;;;;;;;;;9.81;100.00;98787.31;4978203;28;19926;-83
2023/10/31 00:47:29;;;;;;;;;;;;;;;9.79;100.00;98779.47;4993827;28;19922;-85
2023/10/31 00:49:57;;;;;;;;;;;;;;;9.78;100.00;98780.59;4969684;28;19921;-82
2023/10/31 00:52:25;;;;;;;;;;;;;;;9.83;100.00;98775.00;4984006;28;19922;-82
2023/10/31 00:54:58;;;;;;;;;;;;;;;9.77;100.00;98770.84;4991826;28;19937;-83
2023/10/31 00:57:32;;;;;;;;;;;;;;;9.77;100.00;98772.78;4989405;28;19922;-82
2023/10/31 01:00:00;;;;;;;;;;;;;;;9.75;100.00;98775.81;4991661;28;20594;-82
2023/10/31 01:02:28;;;;;;;;;;;;;;;9.75;100.00;98769.56;4987182;28;20314;-83
2023/10/31 01:04:56;;;;;;;;;;;;;;;9.75;100.00;98758.69;4995167;28;19933;-82
2023/10/31 01:07:24;;;;;;;;;;;;;;;9.76;100.00;98752.16;4992281;28;19922;-82
2023/10/31 01:09:57;;;;;;;;;;;;;;;9.75;100.00;98756.78;4995567;28;19925;-84
2023/10/31 01:12:32;;;;;;;;;;;;;;;9.74;100.00;98759.84;4991677;28;20552;-83
2023/10/31 01:15:00;;;;;;;;;;;;;;;9.73;100.00;98752.81;4995142;28;19922;-83
2023/10/31 01:17:28;;;;;;;;;;;;;;;9.72;100.00;98749.28;4995911;28;19928;-83
2023/10/31 01:19:56;;;;;;;;;;;;;;;9.70;100.00;98743.38;4993340;28;19922;-83
2023/10/31 01:22:24;;;;;;;;;;;;;;;9.68;100.00;98738.25;4992675;28;19922;-82
2023/10/31 01:24:52;;;;;;;;;;;;;;;9.66;100.00;98747.84;4994667;28;19922;-83
2023/10/31 01:27:20;;;;;;;;;;;;;;;9.69;100.00;98742.59;4993487;28;19929;-83
2023/10/31 01:29:54;;;;;;;;;;;;;;;9.69;100.00;98739.06;4978276;28;19922;-83
2023/10/31 01:32:22;;;;;;;;;;;;;;;9.69;100.00;98739.06;4990204;28;19929;-82
2023/10/31 01:34:50;;;;;;;;;;;;;;;9.70;100.00;98751.53;4993957;28;19922;-83
2023/10/31 01:37:20;;;;;;;;;;;;;;;9.70;100.00;98743.38;4992946;28;20282;-81
2023/10/31 01:39:48;;;;;;;;;;;;;;;9.69;100.00;98741.78;5000142;28;19921;-83
2023/10/31 01:42:16;;;;;;;;;;;;;;;9.69;100.00;98739.06;4995078;28;19928;-82
2023/10/31 01:44:44;;;;;;;;;;;;;;;9.70;100.00;98736.00;4977326;28;19948;-82
2023/10/31 01:47:13;;;;;;;;;;;;;;;9.70;100.00;98740.66;4993258;28;19922;-82
2023/10/31 01:49:42;;;;;;;;;;;;;;;9.71;100.00;98742.25;4997220;28;19928;-82
2023/10/31 01:52:11;;;;;;;;;;;;;;;9.73;100.00;98745.44;4999719;28;19922;-82
2023/10/31 01:54:39;;;;;;;;;;;;;;;9.70;100.00;98738.72;4993374;28;19929;-82
2023/10/31 01:57:08;;;;;;;;;;;;;;;9.70;100.00;98727.88;4993796;28;20416;-82
2023/10/31 01:59:36;;;;;;;;;;;;;;;9.73;100.00;98725.63;4989483;28;19925;-82
2023/10/31 02:02:09;;;;;;;;;;;;;;;9.70;100.00;98717.00;4992687;28;19926;-83
2023/10/31 02:04:38;;;;;;;;;;;;;;;9.70;100.00;98710.78;4993364;28;19922;-83
2023/10/31 02:07:11;;;;;;;;;;;;;;;9.72;100.00;98707.75;4994275;28;20294;-82
2023/10/31 02:09:39;;;;;;;;;;;;;;;9.72;100.00;98707.75;4993360;28;19922;-83
2023/10/31 02:12:07;;;;;;;;;;;;;;;9.72;100.00;98702.31;4990468;28;19928;-82
2023/10/31 02:14:36;;;;;;;;;;;;;;;9.70;100.00;98702.63;4996433;28;19937;-83
2023/10/31 02:17:09;;;;;;;;;;;;;;;9.70;100.00;98695.28;4975999;28;19929;-84
2023/10/31 02:19:43;;;;;;;;;;;;;;;9.69;100.00;98703.75;4992234;28;19944;-83
2023/10/31 02:22:13;;;;;;;;;;;;;;;9.71;100.00;98696.09;4992590;28;19921;-85
2023/10/31 02:24:46;;;;;;;;;;;;;;;9.77;100.00;98692.06;4988267;28;19925;-83
2023/10/31 02:27:18;;;;;;;;;;;;;;;9.68;100.00;98689.38;4992807;28;19925;-83
2023/10/31 02:29:51;;;;;;;;;;;;;;;9.70;100.00;98678.97;4993903;28;19928;-82
2023/10/31 02:32:19;;;;;;;;;;;;;;;9.73;100.00;98684.91;4974578;28;20375;-82
2023/10/31 02:34:52;;;;;;;;;;;;;;;9.71;100.00;98677.06;4987688;28;19922;-83
2023/10/31 02:37:27;;;;;;;;;;;;;;;9.73;100.00;98677.53;4988370;28;19929;-82
2023/10/31 02:39:54;;;;;;;;;;;;;;;9.70;100.00;98665.38;4993132;28;19930;-82
2023/10/31 02:42:23;;;;;;;;;;;;;;;9.72;100.00;98661.56;4971976;28;19921;-84
2023/10/31 02:44:55;;;;;;;;;;;;;;;9.72;100.00;98662.34;4991308;28;19933;-82
2023/10/31 02:47:24;;;;;;;;;;;;;;;9.72;100.00;98658.84;4985609;28;20406;-82
2023/10/31 02:49:51;;;;;;;;;;;;;;;9.70;100.00;98654.53;5000463;28;20316;-82
2023/10/31 02:52:19;;;;;;;;;;;;;;;9.72;100.00;98647.97;4992756;28;19922;-82
2023/10/31 02:54:49;;;;;;;;;;;;;;;9.74;100.00;98649.25;4989144;28;19922;-83
2023/10/31 02:57:17;;;;;;;;;;;;;;;9.73;100.00;98636.78;4991978;28;19922;-82
2023/10/31 02:59:46;;;;;;;;;;;;;;;9.73;100.00;98642.22;4978821;28;19928;-82
2023/10/31 03:02:19;;;;;;;;;;;;;;;9.77;100.00;98626.09;4987240;28;19928;-84
2023/10/31 03:04:49;;;;;;;;;;;;;;;9.77;100.00;98626.88;4988577;28;19926;-82
2023/10/31 03:07:16;;;;;;;;;;;;;;;9.76;100.00;98635.34;4992833;28;20404;-84
2023/10/31 03:09:44;;;;;;;;;;;;;;;9.74;100.00;98624.81;4994403;28;20378;-82
2023/10/31 03:12:14;;;;;;;;;;;;;;;9.77;100.00;98624.16;4992040;28;19928;-82
2023/10/31 03:14:42;;;;;;;;;;;;;;;9.80;100.00;98628.16;4979096;28;20298;-83
2023/10/31 03:17:15;;;;;;;;;;;;;;;9.79;100.00;98624.63;4972164;28;19932;-83
2023/10/31 03:19:48;;;;;;;;;;;;;;;9.80;100.00;98615.34;4986331;28;19933;-83
2023/10/31 03:22:16;;;;;;;;;;;;;;;9.83;100.00;98622.88;4972642;28;19921;-84
2023/10/31 03:24:43;;;;;;;;;;;;;;;9.83;100.00;98620.16;4987788;28;20089;-83
2023/10/31 03:27:18;;;;;;;;;;;;;;;9.85;100.00;98617.09;4996943;28;20750;-84
2023/10/31 03:29:46;;;;;;;;;;;;;;;9.85;100.00;98617.88;4988726;28;19929;-84
2023/10/31 03:32:19;;;;;;;;;;;;;;;9.85;100.00;98604.31;4992976;28;19928;-82
2023/10/31 03:34:52;;;;;;;;;;;;;;;9.90;100.00;98603.31;4991666;28;19928;-82
2023/10/31 03:37:26;;;;;;;;;;;;;;;9.89;100.00;98601.75;4991846;28;20286;-83
2023/10/31 03:39:53;;;;;;;;;;;;;;;9.88;100.00;98603.66;4994770;28;19921;-82
2023/10/31 03:42:23;;;;;;;;;;;;;;;9.91;100.00;98598.69;4991289;28;19925;-83
2023/10/31 03:44:56;;;;;;;;;;;;;;;9.93;100.00;98594.53;4991745;28;19926;-83
2023/10/31 03:47:24;;;;;;;;;;;;;;;9.93;100.00;98596.44;4988297;28;19922;-83
2023/10/31 03:49:52;;;;;;;;;;;;;;;9.91;100.00;98587.84;4993096;28;19930;-84
2023/10/31 03:52:25;;;;;;;;;;;;;;;9.93;100.00;98583.66;4988141;28;20275;-85
2023/10/31 03:54:53;;;;;;;;;;;;;;;9.97;100.00;98584.59;4967313;28;19922;-83
2023/10/31 03:57:27;;;;;;;;;;;;;;;9.95;100.00;98578.69;4971962;28;20370;-83
2023/10/31 03:59:55;;;;;;;;;;;;;;;9.97;100.00;98586.50;4984170;28;20029;-84
2023/10/31 04:02:23;;;;;;;;;;;;;;;9.99;100.00;98587.00;4983450;28;20367;-83
2023/10/31 04:04:51;;;;;;;;;;;;;;;10.02;100.00;98584.41;4987674;28;19928;-83
2023/10/31 04:07:19;;;;;;;;;;;;;;;9.97;100.00;98578.34;4986026;28;19937;-84
2023/10/31 04:09:52;;;;;;;;;;;;;;;10.04;100.00;98578.66;4991420;28;20370;-83
2023/10/31 04:12:20;;;;;;;;;;;;;;;10.03;100.00;98571.63;4991211;28;19922;-85
2023/10/31 04:14:49;;;;;;;;;;;;;;;10.05;100.00;98572.09;4980707;28;19930;-83
2023/10/31 04:17:22;;;;;;;;;;;;;;;10.05;100.00;98572.09;4989184;28;19922;-84
2023/10/31 04:19:50;;;;;;;;;;;;;;;10.04;100.00;98568.59;4981951;28;19990;-85
2023/10/31 04:22:18;;;;;;;;;;;;;;;10.06;100.00;98565.53;4968603;28;20470;-85
2023/10/31 04:24:51;;;;;;;;;;;;;;;10.09;100.00;98569.53;4992864;28;20628;-84
2023/10/31 04:27:19;;;;;;;;;;;;;;;10.09;100.00;98572.25;4987531;28;19929;-84
2023/10/31 04:29:53;;;;;;;;;;;;;;;10.12;100.00;98563.41;4991395;28;19945;-83
2023/10/31 04:32:21;;;;;;;;;;;;;;;10.13;100.00;98565.03;4993449;28;19922;-85
2023/10/31 04:34:49;;;;;;;;;;;;;;;10.14;100.00;98550.31;4972296;28;19929;-84
2023/10/31 04:37:22;;;;;;;;;;;;;;;10.09;100.00;98551.28;4982512;28;19922;-84
2023/10/31 04:39:50;;;;;;;;;;;;;;;10.14;100.00;98553.81;4975788;28;20402;-84
2023/10/31 04:42:20;;;;;;;;;;;;;;;10.15;100.00;98543.72;4961494;28;19926;-83
2023/10/31 04:44:48;;;;;;;;;;;;;;;10.17;100.00;98544.22;4992206;28;19925;-83
2023/10/31 04:47:17;;;;;;;;;;;;;;;10.17;100.00;98541.50;4991279;28;20378;-83
2023/10/31 04:49:50;;;;;;;;;;;;;;;10.19;100.00;98534.59;4987646;28;19929;-83
2023/10/31 04:52:19;;;;;;;;;;;;;;;10.21;100.00;98534.28;5005105;28;20374;-85
2023/10/31 04:54:52;;;;;;;;;;;;;;;10.24;100.00;98533.59;4973521;28;19925;-84
2023/10/31 04:57:25;;;;;;;;;;;;;;;10.23;100.00;98537.44;4992674;28;19922;-83
2023/10/31 04:59:54;;;;;;;;;;;;;;;10.27;100.00;98530.22;4990170;28;19922;-83
2023/10/31 05:02:23;;;;;;;;;;;;;;;10.28;100.00;98531.03;4993425;28;19921;-84
2023/10/31 05:04:57;;;;;;;;;;;;;;;10.29;100.00;98525.25;4984890;28;19922;-85
2023/10/31 05:07:32;;;;;;;;;;;;;;;10.31;100.00;98516.78;4994058;28;19925;-83
2023/10/31 05:10:05;;;;;;;;;;;;;;;10.29;100.00;98522.53;4995291;28;19926;-83
2023/10/31 05:12:38;;;;;;;;;;;;;;;10.34;100.00;98513.38;4993841;28;19925;-85
2023/10/31 05:15:11;;;;;;;;;;;;;;;10.33;100.00;98507.16;4995730;28;19922;-84
2023/10/31 05:17:46;;;;;;;;;;;;;;;10.37;100.00;98508.13;4995181;28;19921;-83
2023/10/31 05:20:19;;;;;;;;;;;;;;;10.41;100.00;98519.13;4995880;28;19926;-86
2023/10/31 05:22:47;;;;;;;;;;;;;;;10.44;100.00;98510.31;4994233;28;19929;-83
2023/10/31 05:25:15;;;;;;;;;;;;;;;10.44;100.00;98518.47;4983698;28;19929;-84
2023/10/31 05:27:43;;;;;;;;;;;;;;;10.49;100.00;98525.63;5004883;28;19928;-83
2023/10/31 05:30:15;;;;;;;;;;;;;;;10.52;100.00;98516.78;4995479;28;20366;-84
2023/10/31 05:32:44;;;;;;;;;;;;;;;10.53;100.00;98511.03;4994738;28;19936;-83
2023/10/31 05:35:14;;;;;;;;;;;;;;;10.53;100.00;98516.47;4995349;28;19922;-83
2023/10/31 05:37:47;;;;;;;;;;;;;;;10.54;100.00;98512.63;4992481;28;19929;-84
2023/10/31 05:40:22;;;;;;;;;;;;;;;10.56;100.00;98509.56;4988694;28;19929;-84
2023/10/31 05:42:50;;;;;;;;;;;;;;;10.53;100.00;98518.41;4991061;28;19922;-83
2023/10/31 05:45:18;;;;;;;;;;;;;;;10.58;100.00;98515.47;4988314;28;19929;-83
2023/10/31 05:47:50;;;;;;;;;;;;;;;10.63;100.00;98509.03;4979535;28;19937;-83
2023/10/31 05:50:25;;;;;;;;;;;;;;;10.62;100.00;98521.84;4998211;28;19925;-86
2023/10/31 05:52:53;;;;;;;;;;;;;;;10.69;100.00;98524.81;4969622;28;19922;-83
2023/10/31 05:55:20;;;;;;;;;;;;;;;10.67;100.00;98520.84;4997451;28;19921;-83
2023/10/31 05:57:48;;;;;;;;;;;;;;;10.67;100.00;98510.75;4986769;28;19937;-82
2023/10/31 06:00:17;;;;;;;;;;;;;;;10.65;100.00;98504.84;4992685;28;19928;-84
2023/10/31 06:02:44;;;;;;;;;;;;;;;10.67;100.00;98513.47;4993086;28;19922;-82
2023/10/31 06:05:17;;;;;;;;;;;;;;;10.71;100.00;98517.09;4992309;28;19921;-82
2023/10/31 06:07:52;;;;;;;;;;;;;;;10.69;100.00;98510.44;4976912;28;19926;-85
2023/10/31 06:10:21;;;;;;;;;;;;;;;10.70;100.00;98506.56;4994058;28;20290;-83
2023/10/31 06:12:54;;;;;;;;;;;;;;;10.68;100.00;98515.06;4985096;28;20259;-83
2023/10/31 06:15:22;;;;;;;;;;;;;;;10.67;100.00;98512.69;4993971;28;19930;-84
2023/10/31 06:17:55;;;;;;;;;;;;;;;10.72;100.00;98510.53;5003282;28;20381;-85
2023/10/31 06:20:27;;;;;;;;;;;;;;;10.70;100.00;98510.09;4985271;28;19929;-83
2023/10/31 06:22:57;;;;;;;;;;;;;;;10.75;100.00;98517.25;4993764;28;19929;-84
2023/10/31 06:25:30;;;;;;;;;;;;;;;10.72;100.00;98517.91;4992434;28;20302;-83
2023/10/31 06:28:03;;;;;;;;;;;;;;;10.69;100.00;98515.88;4989714;28;19994;-83
2023/10/31 06:30:31;;;;;;;;;;;;;;;10.68;100.00;98515.06;4993477;28;20306;-83
2023/10/31 06:33:04;;;;;;;;;;;;;;;10.75;100.00;98522.69;4977763;28;19922;-84
2023/10/31 06:35:32;;;;;;;;;;;;;;;10.75;100.00;98524.63;4976103;28;19922;-83
2023/10/31 06:38:01;;;;;;;;;;;;;;;10.72;100.00;98523.38;4993456;28;19926;-82
2023/10/31 06:40:29;;;;;;;;;;;;;;;10.79;100.00;98525.53;4997738;28;19946;-83
2023/10/31 06:42:57;;;;;;;;;;;;;;;10.81;100.00;98515.91;4992154;28;19922;-83
2023/10/31 06:45:28;;;;;;;;;;;;;;;10.77;100.00;98520.44;4992237;28;19921;-84
2023/10/31 06:47:56;;;;;;;;;;;;;;;10.75;100.00;98514.53;4991882;28;19922;-85
2023/10/31 06:50:24;;;;;;;;;;;;;;;10.78;100.00;98521.22;4991752;28;20562;-83
2023/10/31 06:52:51;;;;;;;;;;;;;;;10.78;100.00;98510.34;4992601;28;19929;-84
2023/10/31 06:55:21;;;;;;;;;;;;;;;10.79;100.00;98512.72;4989544;28;19926;-82
2023/10/31 06:57:54;;;;;;;;;;;;;;;10.83;100.00;98512.88;4973297;28;19922;-85
2023/10/31 07:00:27;;;;;;;;;;;;;;;10.83;100.00;98516.38;4991862;28;19925;-86
2023/10/31 07:03:04;;;;;;;;;;;;;;;10.82;100.00;98514.00;4985605;28;19948;-84
2023/10/31 07:05:37;;;;;;;;;;;;;;;10.80;100.00;98511.59;4997347;28;19952;-82
2023/10/31 07:08:10;;;;;;;;;;;;;;;10.83;100.00;98513.66;4973027;28;19926;-85
2023/10/31 07:10:40;;;;;;;;;;;;;;;10.87;100.00;98513.78;4997989;28;20309;-82
2023/10/31 07:13:08;;;;;;;;;;;;;;;10.80;100.00;98518.94;4972436;28;19922;-82
2023/10/31 07:15:38;;;;;;;;;;;;;;;10.83;100.00;98510.94;4963610;28;19921;-82
2023/10/31 07:18:07;;;;;;;;;;;;;;;10.77;100.00;98508.75;4985329;28;19933;-84
2023/10/31 07:20:35;;;;;;;;;;;;;;;10.78;100.00;98513.06;4988486;28;20382;-82
2023/10/31 07:23:03;;;;;;;;;;;;;;;10.68;100.00;98512.34;4989205;28;19921;-86
2023/10/31 07:25:31;;;;;;;;;;;;;;;10.68;100.00;98523.22;4992613;28;19925;-84
2023/10/31 07:28:00;;;;;;;;;;;;;;;10.66;100.00;98514.63;5000715;28;19922;-82
2023/10/31 07:30:33;;;;;;;;;;;;;;;10.70;100.00;98517.44;4986199;28;19944;-83
2023/10/31 07:33:06;;;;;;;;;;;;;;;10.61;100.00;98509.38;4999268;28;19921;-84
2023/10/31 07:35:39;;;;;;;;;;;;;;;10.59;100.00;98519.78;4992785;28;20374;-83
2023/10/31 07:38:07;;;;;;;;;;;;;;;10.60;100.00;98526.03;4991984;28;20367;-83
2023/10/31 07:40:35;;;;;;;;;;;;;;;10.51;100.00;98518.72;4991794;28;19926;-84
2023/10/31 07:43:09;;;;;;;;;;;;;;;10.43;100.00;98522.31;4993312;28;20385;-83
2023/10/31 07:45:37;;;;;;;;;;;;;;;10.51;100.00;98517.94;4994531;28;20735;-83
2023/10/31 07:48:05;;;;;;;;;;;;;;;10.44;100.00;98514.94;4975151;28;19922;-86
2023/10/31 07:50:38;;;;;;;;;;;;;;;10.36;100.00;98532.94;4971409;28;19922;-83
2023/10/31 07:53:06;;;;;;;;;;;;;;;10.30;100.00;98529.59;4988233;28;19921;-85
2023/10/31 07:55:39;;;;;;;;;;;;;;;10.25;100.00;98526.25;4991432;28;19929;-83
2023/10/31 07:58:13;;;;;;;;;;;;;;;10.19;100.00;98531.06;5001186;28;19929;-84
2023/10/31 08:00:41;;;;;;;;;;;;;;;10.16;100.00;98526.31;4990550;28;20687;-86
2023/10/31 08:03:14;;;;;;;;;;;;;;;10.16;100.00;98531.75;4995766;28;19929;-83
2023/10/31 08:05:42;;;;;;;;;;;;;;;10.10;100.00;98523.00;4991417;28;19940;-85
2023/10/31 08:08:10;;;;;;;;;;;;;;;10.17;100.00;98525.97;4992147;28;19929;-89
2023/10/31 08:10:38;;;;;;;;;;;;;;;10.04;100.00;98530.53;4989017;28;19932;-86
2023/10/31 08:13:11;;;;;;;;;;;;;;;10.07;100.00;98529.09;4989647;28;19930;-84
2023/10/31 08:15:40;;;;;;;;;;;;;;;10.05;100.00;98528.59;4990732;28;19928;-86
2023/10/31 08:18:13;;;;;;;;;;;;;;;10.02;100.00;98527.34;4989448;28;20386;-86
2023/10/31 08:20:49;;;;;;;;;;;;;;;10.01;100.00;98522.25;4985324;28;19922;-87
2023/10/31 08:23:17;;;;;;;;;;;;;;;10.01;100.00;98527.66;4993950;28;19929;-85
2023/10/31 08:25:45;;;;;;;;;;;;;;;10.09;100.00;98524.09;4992273;28;19932;-88
2023/10/31 08:28:18;;;;;;;;;;;;;;;10.13;100.00;98532.41;4972782;28;19922;-88
2023/10/31 08:30:47;;;;;;;;;;;;;;;10.08;100.00;98538.03;4994724;28;19944;-88
2023/10/31 08:33:15;;;;;;;;;;;;;;;10.06;100.00;98548.44;4998016;28;19921;-85
2023/10/31 08:35:43;;;;;;;;;;;;;;;9.97;100.00;98546.56;4996371;28;20700;-89
2023/10/31 08:38:11;;;;;;;;;;;;;;;9.98;100.00;98544.63;4989795;28;19922;-84
2023/10/31 08:40:40;;;;;;;;;;;;;;;9.89;100.00;98550.13;4993485;28;19928;-84
2023/10/31 08:43:13;;;;;;;;;;;;;;;9.86;100.00;98556.22;4994649;28;19925;-83
2023/10/31 08:45:41;;;;;;;;;;;;;;;9.80;100.00;98550.16;4991746;28;19921;-81
2023/10/31 08:48:15;;;;;;;;;;;;;;;9.75;100.00;98542.22;5000685;28;20997;-84
2023/10/31 08:50:43;;;;;;;;;;;;;;;9.75;100.00;98552.25;4993307;28;19921;-85
2023/10/31 08:53:18;;;;;;;;;;;;;;;9.74;100.00;98559.63;4999944;28;19921;-81
2023/10/31 08:55:46;;;;;;;;;;;;;;;9.72;100.00;98558.34;4994823;28;19933;-88
2023/10/31 08:58:15;;;;;;;;;;;;;;;9.76;100.00;98562.78;4992040;28;19922;-83
2023/10/31 09:00:43;;;;;;;;;;;;;;;9.68;100.00;98579.91;4993807;28;19921;-85
2023/10/31 09:03:13;;;;;;;;;;;;;;;9.72;100.00;98574.66;4994106;28;19922;-84
2023/10/31 09:05:47;;;;;;;;;;;;;;;9.70;100.00;98567.63;4993051;28;19945;-85
2023/10/31 09:08:15;;;;;;;;;;;;;;;9.74;100.00;98566.97;4995418;28;19941;-83
2023/10/31 09:10:48;;;;;;;;;;;;;;;9.73;100.00;98563.44;4975914;28;19929;-86
2023/10/31 09:13:21;;;;;;;;;;;;;;;9.75;100.00;98565.84;4994348;28;19921;-86
2023/10/31 09:15:54;;;;;;;;;;;;;;;9.71;100.00;98565.72;4995858;28;19921;-85
2023/10/31 09:18:22;;;;;;;;;;;;;;;9.66;100.00;98565.88;4989141;28;19922;-85
2023/10/31 09:20:51;;;;;;;;;;;;;;;9.66;100.00;98563.94;4992586;28;19922;-85
2023/10/31 09:23:24;;;;;;;;;;;;;;;9.70;100.00;98567.63;4987488;28;19926;-84
2023/10/31 09:25:52;;;;;;;;;;;;;;;9.79;100.00;98566.78;4972550;28;20382;-85
2023/10/31 09:28:20;;;;;;;;;;;;;;;9.73;100.00;98570.81;4992200;28;19921;-83
2023/10/31 09:30:48;;;;;;;;;;;;;;;9.70;100.00;98569.53;4991821;28;19929;-86
2023/10/31 09:33:21;;;;;;;;;;;;;;;9.61;100.00;98574.19;4990273;28;19922;-86
2023/10/31 09:35:50;;;;;;;;;;;;;;;9.66;100.00;98574.03;4988600;28;20298;-85
2023/10/31 09:38:23;;;;;;;;;;;;;;;9.71;100.00;98571.16;4990763;28;19925;-88
2023/10/31 09:40:51;;;;;;;;;;;;;;;9.74;100.00;98570.47;4989376;28;20302;-87
2023/10/31 09:43:24;;;;;;;;;;;;;;;9.72;100.00;98580.88;4996622;28;19929;-86
2023/10/31 09:45:53;;;;;;;;;;;;;;;9.68;100.00;98585.34;4993150;28;20275;-87
2023/10/31 09:48:21;;;;;;;;;;;;;;;9.67;100.00;98590.00;4994189;28;19922;-84
2023/10/31 09:50:50;;;;;;;;;;;;;;;9.67;100.00;98589.22;4995008;28;19921;-83
2023/10/31 09:53:18;;;;;;;;;;;;;;;9.69;100.00;98593.19;4988573;28;19922;-84
2023/10/31 09:55:53;;;;;;;;;;;;;;;9.78;100.00;98589.66;4976804;28;19926;-86
2023/10/31 09:58:21;;;;;;;;;;;;;;;9.76;100.00;98591.88;4991267;28;19921;-85
2023/10/31 10:00:49;;;;;;;;;;;;;;;9.73;100.00;98589.81;4991908;28;19926;-86
2023/10/31 10:03:22;;;;;;;;;;;;;;;9.72;100.00;98597.16;4985321;28;19922;-82
2023/10/31 10:05:58;;;;;;;;;;;;;;;9.77;100.00;98602.41;4990792;28;19945;-85
2023/10/31 10:08:25;;;;;;;;;;;;;;;9.83;100.00;98606.56;4984806;28;19922;-88
2023/10/31 10:10:53;;;;;;;;;;;;;;;9.84;100.00;98607.34;4993921;28;19933;-88
2023/10/31 10:13:22;;;;;;;;;;;;;;;9.90;100.00;98608.75;4995254;28;19921;-85
2023/10/31 10:15:52;;;;;;;;;;;;;;;9.89;100.00;98615.34;4993443;28;19922;-86
2023/10/31 10:18:25;;;;;;;;;;;;;;;9.89;100.00;98618.06;4992757;28;19929;-86
2023/10/31 10:20:58;;;;;;;;;;;;;;;9.94;100.00;98623.28;4992884;28;20394;-86
2023/10/31 10:23:27;;;;;;;;;;;;;;;9.98;100.00;98618.78;4985685;28;19933;-86
2023/10/31 10:25:56;;;;;;;;;;;;;;;10.13;100.00;98632.97;4979658;28;19925;-84
2023/10/31 10:28:24;;;;;;;;;;;;;;;10.15;100.00;98633.44;4970218;28;19932;-85
2023/10/31 10:30:53;;;;;;;;;;;;;;;10.11;100.00;98643.34;4992701;28;19921;-82
2023/10/31 10:33:26;;;;;;;;;;;;;;;10.05;100.00;98650.91;4994769;28;19925;-88
2023/10/31 10:35:56;;;;;;;;;;;;;;;9.96;100.00;98648.22;4945216;28;19953;-87
2023/10/31 10:38:35;;;;;;;;;;;;;;;9.90;100.00;98668.53;4982781;28;19922;-91
2023/10/31 10:41:10;;;;;;;;;;;;;;;9.75;100.00;98686.16;4968095;28;19928;-87
2023/10/31 10:43:44;;;;;;;;;;;;;;;9.61;100.00;98704.56;4972258;28;20437;-85
2023/10/31 10:46:18;;;;;;;;;;;;;;;9.32;100.00;98703.28;4965371;28;19929;-90
2023/10/31 10:48:48;;;;;;;;;;;;;;;9.17;100.00;98713.53;4967673;28;19960;-89
2023/10/31 10:51:20;;;;;;;;;;;;;;;9.06;100.00;98719.56;4951199;28;19930;-87
2023/10/31 10:53:51;;;;;;;;;;;;;;;9.06;100.00;98730.44;4972056;28;19925;-86
2023/10/31 10:56:22;;;;;;;;;;;;;;;9.05;100.00;98751.34;4972717;28;19929;-88
2023/10/31 10:58:52;;;;;;;;;;;;;;;8.86;100.00;98765.19;4970262;28;19936;-88
2023/10/31 11:01:20;;;;;;;;;;;;;;;8.82;100.00;98775.88;4974533;28;19936;-81
2023/10/31 11:03:49;;;;;;;;;;;;;;;8.76;100.00;98789.91;4971902;28;20062;-90
2023/10/31 11:06:19;;;;;;;;;;;;;;;8.68;100.00;98794.94;4974488;28;19929;-88
2023/10/31 11:08:48;;;;;;;;;;;;;;;8.64;100.00;98802.13;4967252;28;20830;-89
2023/10/31 11:11:17;;;;;;;;;;;;;;;8.60;100.00;98817.41;4947071;28;19937;-89
2023/10/31 11:13:46;;;;;;;;;;;;;;;8.65;100.00;98832.75;4971291;28;20610;-86
2023/10/31 11:16:24;;;;;;;;;;;;;;;8.57;100.00;98838.94;4966453;28;19929;-86
2023/10/31 11:18:53;;;;;;;;;;;;;;;8.55;100.00;98852.81;4975989;28;19928;-85
2023/10/31 11:21:29;;;;;;;;;;;;;;;8.60;100.00;98873.56;4967935;28;19930;-89
2023/10/31 11:24:00;;;;;;;;;;;;;;;8.52;100.00;98880.56;4968780;28;19930;-88
2023/10/31 11:26:32;;;;;;;;;;;;;;;8.51;100.00;98897.94;4969352;28;19930;-89
2023/10/31 11:29:04;;;;;;;;;;;;;;;8.47;100.00;98919.41;4957455;28;19929;-88
2023/10/31 11:31:33;;;;;;;;;;;;;;;8.45;100.00;98921.66;4956357;28;19937;-88
2023/10/31 11:34:01;;;;;;;;;;;;;;;8.44;100.00;98921.94;4977181;28;19929;-90
2023/10/31 11:36:32;;;;;;;;;;;;;;;8.44;100.00;98933.56;4968532;28;20689;-87
2023/10/31 11:39:14;;;;;;;;;;;;;;;8.45;100.00;98935.22;4957096;28;20460;-90
2023/10/31 11:41:49;;;;;;;;;;;;;;;8.40;100.00;98943.44;4971967;28;20145;-86
2023/10/31 11:44:20;;;;;;;;;;;;;;;8.43;100.00;98950.13;4975108;28;19929;-92
2023/10/31 11:46:51;;;;;;;;;;;;;;;8.45;100.00;98970.44;4973875;28;19936;-86
2023/10/31 11:49:39;;;;;;;;;;;;;;;8.44;100.00;98976.16;4967295;28;19930;-86
2023/10/31 11:52:15;;;;;;;;;;;;;;;8.44;100.00;98976.16;4965653;28;19929;-85
2023/10/31 11:54:43;;;;;;;;;;;;;;;8.45;100.00;98981.28;4971468;28;19930;-89
2023/10/31 11:57:26;;;;;;;;;;;;;;;8.49;100.00;99000.44;4956954;28;21080;-89
2023/10/31 11:59:55;;;;;;;;;;;;;;;8.45;100.00;99005.69;4972882;28;19932;-89
2023/10/31 12:02:23;;;;;;;;;;;;;;;8.42;100.00;99014.38;4971976;28;19937;-89
2023/10/31 12:05:07;;;;;;;;;;;;;;;8.40;100.00;99015.81;4971827;28;19930;-88
2023/10/31 12:07:43;;;;;;;;;;;;;;;8.47;100.00;99025.16;4953830;28;19936;-87
2023/10/31 12:10:11;;;;;;;;;;;;;;;8.60;100.00;99025.41;4955324;28;19929;-88
2023/10/31 12:12:41;;;;;;;;;;;;;;;8.70;100.00;99030.59;4966483;28;19930;-89
2023/10/31 12:15:14;;;;;;;;;;;;;;;8.84;100.00;99034.03;4973557;28;20607;-89
2023/10/31 12:17:47;;;;;;;;;;;;;;;8.83;100.00;99039.78;4980435;28;21319;-88
2023/10/31 12:20:16;;;;;;;;;;;;;;;8.78;100.00;99054.28;4974537;28;19941;-88
2023/10/31 12:22:44;;;;;;;;;;;;;;;8.81;100.00;99059.09;4973787;28;19930;-90
2023/10/31 12:25:12;;;;;;;;;;;;;;;8.88;100.00;99068.69;4972940;28;19929;-91
2023/10/31 12:27:46;;;;;;;;;;;;;;;8.85;100.00;99083.66;4975200;28;19929;-94
2023/10/31 12:30:16;;;;;;;;;;;;;;;8.89;100.00;99090.06;4975249;28;19930;-91
2023/10/31 12:32:44;;;;;;;;;;;;;;;9.02;100.00;99091.94;4976336;28;19921;-90
2023/10/31 12:35:16;;;;;;;;;;;;;;;9.07;100.00;99091.00;4949933;28;20607;-90
2023/10/31 12:37:46;;;;;;;;;;;;;;;9.03;100.00;99106.31;4973221;28;19930;-90
2023/10/31 12:40:15;;;;;;;;;;;;;;;9.16;100.00;99099.22;4973990;28;19930;-89
2023/10/31 12:42:46;;;;;;;;;;;;;;;9.21;100.00;99098.28;4972389;28;19937;-89
2023/10/31 12:45:18;;;;;;;;;;;;;;;9.27;100.00;99108.72;4977882;28;19952;-88
2023/10/31 12:48:01;;;;;;;;;;;;;;;9.24;100.00;99103.91;4976072;28;19933;-89
2023/10/31 12:50:29;;;;;;;;;;;;;;;9.28;100.00;99113.03;4975539;28;19937;-90
2023/10/31 12:52:59;;;;;;;;;;;;;;;9.18;100.00;99111.38;4975240;28;20390;-85
2023/10/31 12:55:28;;;;;;;;;;;;;;;9.23;100.00;99110.44;4959557;28;19929;-87
2023/10/31 12:57:58;;;;;;;;;;;;;;;9.17;100.00;99120.63;4970960;28;19937;-84
2023/10/31 13:00:31;;;;;;;;;;;;;;;9.13;100.00;99122.34;4974081;28;19926;-88